sensor_id;sensor_type;location;lat;lon;timestamp;P1;durP1;ratioP1;P2;durP2;ratioP2
37383;SDS011;23258;49.718;11.082;2023-01-23T00:00:45;5.53;;;4.70;;
37383;SDS011;23258;49.718;11.082;2023-01-23T00:03:15;5.97;;;4.70;;
37383;SDS011;23258;49.718;11.082;2023-01-23T00:05:44;6.53;;;4.63;;
37383;SDS011;23258;49.718;11.082;2023-01-23T00:08:16;6.07;;;4.73;;
37383;SDS011;23258;49.718;11.082;2023-01-23T00:10:47;6.73;;;4.70;;
37383;SDS011;23258;49.718;11.082;2023-01-23T00:13:16;5.40;;;4.90;;
37383;SDS011;23258;49.718;11.082;2023-01-23T00:15:46;7.47;;;5.00;;
37383;SDS011;23258;49.718;11.082;2023-01-23T00:18:16;5.07;;;4.47;;
37383;SDS011;23258;49.718;11.082;2023-01-23T00:20:46;5.53;;;5.00;;
37383;SDS011;23258;49.718;11.082;2023-01-23T00:23:18;5.53;;;4.87;;
37383;SDS011;23258;49.718;11.082;2023-01-23T00:25:48;4.77;;;4.20;;
37383;SDS011;23258;49.718;11.082;2023-01-23T00:28:17;5.53;;;4.23;;
37383;SDS011;23258;49.718;11.082;2023-01-23T00:30:46;7.73;;;4.60;;
37383;SDS011;23258;49.718;11.082;2023-01-23T00:33:16;4.80;;;3.90;;
37383;SDS011;23258;49.718;11.082;2023-01-23T00:35:46;6.57;;;5.03;;
37383;SDS011;23258;49.718;11.082;2023-01-23T00:38:18;7.30;;;4.77;;
37383;SDS011;23258;49.718;11.082;2023-01-23T00:40:48;6.03;;;4.57;;
37383;SDS011;23258;49.718;11.082;2023-01-23T00:43:17;5.47;;;4.23;;
37383;SDS011;23258;49.718;11.082;2023-01-23T00:45:47;4.27;;;3.93;;
37383;SDS011;23258;49.718;11.082;2023-01-23T00:48:17;5.60;;;4.60;;
37383;SDS011;23258;49.718;11.082;2023-01-23T00:50:46;6.33;;;5.73;;
37383;SDS011;23258;49.718;11.082;2023-01-23T00:53:19;4.70;;;4.27;;
37383;SDS011;23258;49.718;11.082;2023-01-23T00:55:49;4.80;;;4.30;;
37383;SDS011;23258;49.718;11.082;2023-01-23T00:58:19;7.80;;;4.80;;
37383;SDS011;23258;49.718;11.082;2023-01-23T01:00:48;4.30;;;3.73;;
37383;SDS011;23258;49.718;11.082;2023-01-23T01:03:17;6.27;;;4.80;;
37383;SDS011;23258;49.718;11.082;2023-01-23T01:05:47;5.13;;;4.50;;
37383;SDS011;23258;49.718;11.082;2023-01-23T01:08:19;5.07;;;4.43;;
37383;SDS011;23258;49.718;11.082;2023-01-23T01:10:49;4.43;;;3.90;;
37383;SDS011;23258;49.718;11.082;2023-01-23T01:13:18;5.07;;;4.57;;
37383;SDS011;23258;49.718;11.082;2023-01-23T01:15:49;5.03;;;4.50;;
37383;SDS011;23258;49.718;11.082;2023-01-23T01:18:20;6.33;;;5.07;;
37383;SDS011;23258;49.718;11.082;2023-01-23T01:20:49;5.77;;;4.60;;
37383;SDS011;23258;49.718;11.082;2023-01-23T01:23:22;5.43;;;4.83;;
37383;SDS011;23258;49.718;11.082;2023-01-23T01:25:51;8.20;;;5.13;;
37383;SDS011;23258;49.718;11.082;2023-01-23T01:28:21;5.13;;;4.63;;
37383;SDS011;23258;49.718;11.082;2023-01-23T01:30:51;5.23;;;4.73;;
37383;SDS011;23258;49.718;11.082;2023-01-23T01:33:21;5.70;;;4.90;;
37383;SDS011;23258;49.718;11.082;2023-01-23T01:35:52;4.60;;;4.20;;
37383;SDS011;23258;49.718;11.082;2023-01-23T01:38:24;5.97;;;4.23;;
37383;SDS011;23258;49.718;11.082;2023-01-23T01:40:56;4.70;;;4.23;;
37383;SDS011;23258;49.718;11.082;2023-01-23T01:43:26;5.53;;;4.40;;
37383;SDS011;23258;49.718;11.082;2023-01-23T01:46:00;5.73;;;4.47;;
37383;SDS011;23258;49.718;11.082;2023-01-23T01:48:34;4.83;;;4.33;;
37383;SDS011;23258;49.718;11.082;2023-01-23T01:51:07;5.43;;;4.17;;
37383;SDS011;23258;49.718;11.082;2023-01-23T01:53:40;5.70;;;4.50;;
37383;SDS011;23258;49.718;11.082;2023-01-23T01:56:10;5.23;;;4.70;;
37383;SDS011;23258;49.718;11.082;2023-01-23T01:58:40;5.30;;;4.57;;
37383;SDS011;23258;49.718;11.082;2023-01-23T02:01:11;6.70;;;5.20;;
37383;SDS011;23258;49.718;11.082;2023-01-23T02:03:40;5.03;;;4.00;;
37383;SDS011;23258;49.718;11.082;2023-01-23T02:06:11;5.57;;;4.87;;
37383;SDS011;23258;49.718;11.082;2023-01-23T02:08:45;5.77;;;4.73;;
37383;SDS011;23258;49.718;11.082;2023-01-23T02:11:16;5.77;;;4.60;;
37383;SDS011;23258;49.718;11.082;2023-01-23T02:13:48;5.40;;;4.90;;
37383;SDS011;23258;49.718;11.082;2023-01-23T02:16:24;6.93;;;5.13;;
37383;SDS011;23258;49.718;11.082;2023-01-23T02:18:57;7.07;;;4.50;;
37383;SDS011;23258;49.718;11.082;2023-01-23T02:21:27;5.53;;;4.83;;
37383;SDS011;23258;49.718;11.082;2023-01-23T02:24:04;6.17;;;4.97;;
37383;SDS011;23258;49.718;11.082;2023-01-23T02:26:40;5.63;;;4.73;;
37383;SDS011;23258;49.718;11.082;2023-01-23T02:29:11;5.20;;;4.67;;
37383;SDS011;23258;49.718;11.082;2023-01-23T02:31:48;5.27;;;4.60;;
37383;SDS011;23258;49.718;11.082;2023-01-23T02:34:19;4.73;;;3.87;;
37383;SDS011;23258;49.718;11.082;2023-01-23T02:36:56;6.37;;;4.97;;
37383;SDS011;23258;49.718;11.082;2023-01-23T02:39:27;6.03;;;4.90;;
37383;SDS011;23258;49.718;11.082;2023-01-23T02:42:00;5.53;;;4.50;;
37383;SDS011;23258;49.718;11.082;2023-01-23T02:44:50;5.57;;;4.20;;
37383;SDS011;23258;49.718;11.082;2023-01-23T02:47:22;5.30;;;4.80;;
37383;SDS011;23258;49.718;11.082;2023-01-23T02:49:55;5.43;;;4.73;;
37383;SDS011;23258;49.718;11.082;2023-01-23T02:52:25;5.13;;;4.53;;
37383;SDS011;23258;49.718;11.082;2023-01-23T02:54:54;4.83;;;4.43;;
37383;SDS011;23258;49.718;11.082;2023-01-23T02:57:26;6.43;;;5.30;;
37383;SDS011;23258;49.718;11.082;2023-01-23T02:59:56;6.37;;;4.40;;
37383;SDS011;23258;49.718;11.082;2023-01-23T03:02:40;6.17;;;5.07;;
37383;SDS011;23258;49.718;11.082;2023-01-23T03:05:10;5.43;;;4.80;;
37383;SDS011;23258;49.718;11.082;2023-01-23T03:07:39;5.20;;;4.70;;
37383;SDS011;23258;49.718;11.082;2023-01-23T03:10:09;5.67;;;5.17;;
37383;SDS011;23258;49.718;11.082;2023-01-23T03:12:44;5.50;;;4.50;;
37383;SDS011;23258;49.718;11.082;2023-01-23T03:15:14;5.83;;;4.87;;
37383;SDS011;23258;49.718;11.082;2023-01-23T03:17:44;6.40;;;5.00;;
37383;SDS011;23258;49.718;11.082;2023-01-23T03:20:15;6.80;;;5.13;;
37383;SDS011;23258;49.718;11.082;2023-01-23T03:22:45;5.53;;;4.93;;
37383;SDS011;23258;49.718;11.082;2023-01-23T03:25:15;6.90;;;5.50;;
37383;SDS011;23258;49.718;11.082;2023-01-23T03:27:48;6.83;;;5.60;;
37383;SDS011;23258;49.718;11.082;2023-01-23T03:30:18;5.60;;;4.30;;
37383;SDS011;23258;49.718;11.082;2023-01-23T03:32:49;5.70;;;5.13;;
37383;SDS011;23258;49.718;11.082;2023-01-23T03:35:19;6.63;;;5.33;;
37383;SDS011;23258;49.718;11.082;2023-01-23T03:37:52;7.10;;;6.23;;
37383;SDS011;23258;49.718;11.082;2023-01-23T03:40:22;11.30;;;6.07;;
37383;SDS011;23258;49.718;11.082;2023-01-23T03:43:07;8.13;;;5.60;;
37383;SDS011;23258;49.718;11.082;2023-01-23T03:45:42;7.67;;;5.80;;
37383;SDS011;23258;49.718;11.082;2023-01-23T03:48:12;9.03;;;5.90;;
37383;SDS011;23258;49.718;11.082;2023-01-23T03:50:43;5.87;;;5.07;;
37383;SDS011;23258;49.718;11.082;2023-01-23T03:53:13;7.23;;;5.70;;
37383;SDS011;23258;49.718;11.082;2023-01-23T03:55:43;6.10;;;4.70;;
37383;SDS011;23258;49.718;11.082;2023-01-23T03:58:15;6.63;;;5.00;;
37383;SDS011;23258;49.718;11.082;2023-01-23T04:00:46;7.10;;;5.20;;
37383;SDS011;23258;49.718;11.082;2023-01-23T04:03:16;9.23;;;5.90;;
37383;SDS011;23258;49.718;11.082;2023-01-23T04:05:45;6.03;;;4.57;;
37383;SDS011;23258;49.718;11.082;2023-01-23T04:08:16;7.67;;;6.27;;
37383;SDS011;23258;49.718;11.082;2023-01-23T04:10:45;5.70;;;4.73;;
37383;SDS011;23258;49.718;11.082;2023-01-23T04:13:18;7.73;;;5.30;;
37383;SDS011;23258;49.718;11.082;2023-01-23T04:15:48;6.80;;;5.10;;
37383;SDS011;23258;49.718;11.082;2023-01-23T04:18:17;7.03;;;5.87;;
37383;SDS011;23258;49.718;11.082;2023-01-23T04:20:47;7.63;;;5.53;;
37383;SDS011;23258;49.718;11.082;2023-01-23T04:23:16;5.77;;;5.13;;
37383;SDS011;23258;49.718;11.082;2023-01-23T04:25:46;7.33;;;5.37;;
37383;SDS011;23258;49.718;11.082;2023-01-23T04:28:18;5.73;;;4.80;;
37383;SDS011;23258;49.718;11.082;2023-01-23T04:30:49;5.43;;;4.77;;
37383;SDS011;23258;49.718;11.082;2023-01-23T04:33:26;7.47;;;5.67;;
37383;SDS011;23258;49.718;11.082;2023-01-23T04:35:56;5.80;;;5.20;;
37383;SDS011;23258;49.718;11.082;2023-01-23T04:38:28;6.20;;;5.60;;
37383;SDS011;23258;49.718;11.082;2023-01-23T04:41:11;7.37;;;5.37;;
37383;SDS011;23258;49.718;11.082;2023-01-23T04:43:45;6.77;;;5.40;;
37383;SDS011;23258;49.718;11.082;2023-01-23T04:46:14;8.13;;;5.90;;
37383;SDS011;23258;49.718;11.082;2023-01-23T04:48:47;6.73;;;5.63;;
37383;SDS011;23258;49.718;11.082;2023-01-23T04:51:17;6.70;;;5.83;;
37383;SDS011;23258;49.718;11.082;2023-01-23T04:53:47;6.73;;;5.67;;
37383;SDS011;23258;49.718;11.082;2023-01-23T04:56:16;7.73;;;6.10;;
37383;SDS011;23258;49.718;11.082;2023-01-23T04:58:49;7.93;;;5.70;;
37383;SDS011;23258;49.718;11.082;2023-01-23T05:01:19;5.87;;;5.20;;
37383;SDS011;23258;49.718;11.082;2023-01-23T05:03:55;7.40;;;5.83;;
37383;SDS011;23258;49.718;11.082;2023-01-23T05:06:24;6.73;;;5.73;;
37383;SDS011;23258;49.718;11.082;2023-01-23T05:08:56;5.90;;;5.23;;
37383;SDS011;23258;49.718;11.082;2023-01-23T05:11:34;8.17;;;6.03;;
37383;SDS011;23258;49.718;11.082;2023-01-23T05:14:07;5.67;;;5.10;;
37383;SDS011;23258;49.718;11.082;2023-01-23T05:16:38;6.93;;;5.37;;
37383;SDS011;23258;49.718;11.082;2023-01-23T05:19:17;7.13;;;5.33;;
37383;SDS011;23258;49.718;11.082;2023-01-23T05:21:47;6.83;;;4.97;;
37383;SDS011;23258;49.718;11.082;2023-01-23T05:24:19;6.93;;;5.40;;
37383;SDS011;23258;49.718;11.082;2023-01-23T05:26:49;8.93;;;5.57;;
37383;SDS011;23258;49.718;11.082;2023-01-23T05:29:21;8.60;;;5.13;;
37383;SDS011;23258;49.718;11.082;2023-01-23T05:31:59;9.83;;;5.83;;
37383;SDS011;23258;49.718;11.082;2023-01-23T05:34:51;6.87;;;5.87;;
37383;SDS011;23258;49.718;11.082;2023-01-23T05:37:24;5.87;;;5.13;;
37383;SDS011;23258;49.718;11.082;2023-01-23T05:40:04;7.83;;;5.93;;
37383;SDS011;23258;49.718;11.082;2023-01-23T05:42:53;6.63;;;5.40;;
37383;SDS011;23258;49.718;11.082;2023-01-23T05:45:47;6.50;;;5.30;;
37383;SDS011;23258;49.718;11.082;2023-01-23T05:48:25;8.93;;;5.53;;
37383;SDS011;23258;49.718;11.082;2023-01-23T05:50:55;6.70;;;5.97;;
37383;SDS011;23258;49.718;11.082;2023-01-23T05:53:25;9.13;;;6.10;;
37383;SDS011;23258;49.718;11.082;2023-01-23T05:55:54;10.63;;;5.57;;
37383;SDS011;23258;49.718;11.082;2023-01-23T05:58:24;5.97;;;4.63;;
37383;SDS011;23258;49.718;11.082;2023-01-23T06:01:19;6.70;;;5.10;;
37383;SDS011;23258;49.718;11.082;2023-01-23T06:04:18;8.47;;;5.10;;
37383;SDS011;23258;49.718;11.082;2023-01-23T06:07:00;6.33;;;5.73;;
37383;SDS011;23258;49.718;11.082;2023-01-23T06:09:31;6.60;;;5.90;;
37383;SDS011;23258;49.718;11.082;2023-01-23T06:12:00;6.17;;;5.33;;
37383;SDS011;23258;49.718;11.082;2023-01-23T06:14:30;8.87;;;5.77;;
37383;SDS011;23258;49.718;11.082;2023-01-23T06:17:03;7.50;;;5.37;;
37383;SDS011;23258;49.718;11.082;2023-01-23T06:19:32;9.23;;;5.67;;
37383;SDS011;23258;49.718;11.082;2023-01-23T06:22:02;9.10;;;5.80;;
37383;SDS011;23258;49.718;11.082;2023-01-23T06:24:44;7.90;;;5.20;;
37383;SDS011;23258;49.718;11.082;2023-01-23T06:27:13;6.87;;;5.33;;
37383;SDS011;23258;49.718;11.082;2023-01-23T06:29:43;7.63;;;6.10;;
37383;SDS011;23258;49.718;11.082;2023-01-23T06:32:15;6.00;;;5.40;;
37383;SDS011;23258;49.718;11.082;2023-01-23T06:34:46;7.50;;;5.40;;
37383;SDS011;23258;49.718;11.082;2023-01-23T06:37:15;6.27;;;5.23;;
37383;SDS011;23258;49.718;11.082;2023-01-23T06:39:45;8.33;;;5.73;;
37383;SDS011;23258;49.718;11.082;2023-01-23T06:42:15;6.30;;;5.17;;
37383;SDS011;23258;49.718;11.082;2023-01-23T06:44:47;6.00;;;5.47;;
37383;SDS011;23258;49.718;11.082;2023-01-23T06:47:21;7.27;;;4.90;;
37383;SDS011;23258;49.718;11.082;2023-01-23T06:49:57;7.23;;;5.50;;
37383;SDS011;23258;49.718;11.082;2023-01-23T06:52:29;8.20;;;5.53;;
37383;SDS011;23258;49.718;11.082;2023-01-23T06:55:00;7.73;;;5.97;;
37383;SDS011;23258;49.718;11.082;2023-01-23T06:57:32;7.50;;;6.53;;
37383;SDS011;23258;49.718;11.082;2023-01-23T07:00:02;9.07;;;5.97;;
37383;SDS011;23258;49.718;11.082;2023-01-23T07:02:35;8.80;;;6.80;;
37383;SDS011;23258;49.718;11.082;2023-01-23T07:05:05;8.57;;;6.70;;
37383;SDS011;23258;49.718;11.082;2023-01-23T07:07:35;12.30;;;7.33;;
37383;SDS011;23258;49.718;11.082;2023-01-23T07:10:05;8.27;;;6.03;;
37383;SDS011;23258;49.718;11.082;2023-01-23T07:12:36;7.97;;;5.63;;
37383;SDS011;23258;49.718;11.082;2023-01-23T07:15:07;8.87;;;6.23;;
37383;SDS011;23258;49.718;11.082;2023-01-23T07:17:41;8.60;;;5.80;;
37383;SDS011;23258;49.718;11.082;2023-01-23T07:20:11;7.30;;;6.27;;
37383;SDS011;23258;49.718;11.082;2023-01-23T07:22:46;10.07;;;6.07;;
37383;SDS011;23258;49.718;11.082;2023-01-23T07:25:16;7.13;;;5.70;;
37383;SDS011;23258;49.718;11.082;2023-01-23T07:27:46;7.63;;;6.03;;
37383;SDS011;23258;49.718;11.082;2023-01-23T07:30:16;8.03;;;5.77;;
37383;SDS011;23258;49.718;11.082;2023-01-23T07:32:48;8.80;;;6.50;;
37383;SDS011;23258;49.718;11.082;2023-01-23T07:35:18;7.77;;;6.20;;
37383;SDS011;23258;49.718;11.082;2023-01-23T07:37:47;7.23;;;6.33;;
37383;SDS011;23258;49.718;11.082;2023-01-23T07:40:17;7.70;;;6.70;;
37383;SDS011;23258;49.718;11.082;2023-01-23T07:42:47;8.77;;;6.57;;
37383;SDS011;23258;49.718;11.082;2023-01-23T07:45:17;8.60;;;6.80;;
37383;SDS011;23258;49.718;11.082;2023-01-23T07:47:49;10.03;;;6.73;;
37383;SDS011;23258;49.718;11.082;2023-01-23T07:50:19;8.80;;;6.57;;
37383;SDS011;23258;49.718;11.082;2023-01-23T07:52:49;11.73;;;7.07;;
37383;SDS011;23258;49.718;11.082;2023-01-23T07:55:21;7.50;;;6.43;;
37383;SDS011;23258;49.718;11.082;2023-01-23T07:57:51;8.27;;;6.43;;
37383;SDS011;23258;49.718;11.082;2023-01-23T08:00:21;9.03;;;6.13;;
37383;SDS011;23258;49.718;11.082;2023-01-23T08:02:57;10.03;;;6.70;;
37383;SDS011;23258;49.718;11.082;2023-01-23T08:05:27;7.37;;;6.23;;
37383;SDS011;23258;49.718;11.082;2023-01-23T08:07:56;9.30;;;6.53;;
37383;SDS011;23258;49.718;11.082;2023-01-23T08:10:38;8.90;;;6.53;;
37383;SDS011;23258;49.718;11.082;2023-01-23T08:13:08;6.73;;;6.07;;
37383;SDS011;23258;49.718;11.082;2023-01-23T08:15:37;11.23;;;6.77;;
37383;SDS011;23258;49.718;11.082;2023-01-23T08:18:10;8.93;;;6.60;;
37383;SDS011;23258;49.718;11.082;2023-01-23T08:20:39;7.40;;;6.20;;
37383;SDS011;23258;49.718;11.082;2023-01-23T08:23:09;8.23;;;6.53;;
37383;SDS011;23258;49.718;11.082;2023-01-23T08:25:38;6.83;;;5.97;;
37383;SDS011;23258;49.718;11.082;2023-01-23T08:28:08;8.53;;;6.07;;
37383;SDS011;23258;49.718;11.082;2023-01-23T08:30:37;7.93;;;5.77;;
37383;SDS011;23258;49.718;11.082;2023-01-23T08:33:07;7.57;;;5.63;;
37383;SDS011;23258;49.718;11.082;2023-01-23T08:35:49;9.10;;;6.13;;
37383;SDS011;23258;49.718;11.082;2023-01-23T08:38:19;7.50;;;6.27;;
37383;SDS011;23258;49.718;11.082;2023-01-23T08:40:50;8.23;;;6.67;;
37383;SDS011;23258;49.718;11.082;2023-01-23T08:43:20;8.47;;;6.90;;
37383;SDS011;23258;49.718;11.082;2023-01-23T08:45:51;10.83;;;7.00;;
37383;SDS011;23258;49.718;11.082;2023-01-23T08:48:21;8.20;;;6.10;;
37383;SDS011;23258;49.718;11.082;2023-01-23T08:50:57;7.63;;;6.60;;
37383;SDS011;23258;49.718;11.082;2023-01-23T08:53:27;9.87;;;7.00;;
37383;SDS011;23258;49.718;11.082;2023-01-23T08:55:59;8.03;;;6.13;;
37383;SDS011;23258;49.718;11.082;2023-01-23T08:58:29;7.97;;;6.33;;
37383;SDS011;23258;49.718;11.082;2023-01-23T09:00:59;12.00;;;7.83;;
37383;SDS011;23258;49.718;11.082;2023-01-23T09:03:29;8.07;;;6.27;;
37383;SDS011;23258;49.718;11.082;2023-01-23T09:06:02;8.43;;;6.60;;
37383;SDS011;23258;49.718;11.082;2023-01-23T09:08:31;9.60;;;6.57;;
37383;SDS011;23258;49.718;11.082;2023-01-23T09:11:02;8.27;;;6.63;;
37383;SDS011;23258;49.718;11.082;2023-01-23T09:13:32;8.67;;;5.90;;
37383;SDS011;23258;49.718;11.082;2023-01-23T09:16:02;7.47;;;6.00;;
37383;SDS011;23258;49.718;11.082;2023-01-23T09:18:33;5.73;;;5.23;;
37383;SDS011;23258;49.718;11.082;2023-01-23T09:21:09;6.77;;;5.33;;
37383;SDS011;23258;49.718;11.082;2023-01-23T09:23:39;6.60;;;5.93;;
37383;SDS011;23258;49.718;11.082;2023-01-23T09:26:09;7.53;;;5.93;;
37383;SDS011;23258;49.718;11.082;2023-01-23T09:28:39;5.73;;;5.23;;
37383;SDS011;23258;49.718;11.082;2023-01-23T09:31:10;7.13;;;5.57;;
37383;SDS011;23258;49.718;11.082;2023-01-23T09:33:39;8.87;;;5.83;;
37383;SDS011;23258;49.718;11.082;2023-01-23T09:36:12;8.70;;;5.57;;
37383;SDS011;23258;49.718;11.082;2023-01-23T09:38:41;8.03;;;5.80;;
37383;SDS011;23258;49.718;11.082;2023-01-23T09:41:13;6.27;;;4.90;;
37383;SDS011;23258;49.718;11.082;2023-01-23T09:43:46;6.20;;;5.57;;
37383;SDS011;23258;49.718;11.082;2023-01-23T09:46:19;6.53;;;5.63;;
37383;SDS011;23258;49.718;11.082;2023-01-23T09:48:50;7.00;;;5.27;;
37383;SDS011;23258;49.718;11.082;2023-01-23T09:51:27;8.07;;;6.13;;
37383;SDS011;23258;49.718;11.082;2023-01-23T09:54:01;7.13;;;5.23;;
37383;SDS011;23258;49.718;11.082;2023-01-23T09:56:34;6.77;;;5.63;;
37383;SDS011;23258;49.718;11.082;2023-01-23T09:59:10;6.43;;;5.03;;
37383;SDS011;23258;49.718;11.082;2023-01-23T10:01:41;7.43;;;4.97;;
37383;SDS011;23258;49.718;11.082;2023-01-23T10:04:11;4.97;;;4.53;;
37383;SDS011;23258;49.718;11.082;2023-01-23T10:06:50;7.00;;;5.10;;
37383;SDS011;23258;49.718;11.082;2023-01-23T10:09:29;6.47;;;5.10;;
37383;SDS011;23258;49.718;11.082;2023-01-23T10:12:04;6.23;;;4.73;;
37383;SDS011;23258;49.718;11.082;2023-01-23T10:14:39;7.10;;;5.20;;
37383;SDS011;23258;49.718;11.082;2023-01-23T10:17:12;7.70;;;5.73;;
37383;SDS011;23258;49.718;11.082;2023-01-23T10:19:44;8.53;;;5.30;;
37383;SDS011;23258;49.718;11.082;2023-01-23T10:22:27;6.77;;;5.43;;
37383;SDS011;23258;49.718;11.082;2023-01-23T10:25:06;7.87;;;4.93;;
37383;SDS011;23258;49.718;11.082;2023-01-23T10:27:38;6.33;;;5.43;;
37383;SDS011;23258;49.718;11.082;2023-01-23T10:30:16;7.47;;;5.83;;
37383;SDS011;23258;49.718;11.082;2023-01-23T10:32:48;7.30;;;5.87;;
37383;SDS011;23258;49.718;11.082;2023-01-23T10:35:21;6.00;;;5.40;;
37383;SDS011;23258;49.718;11.082;2023-01-23T10:37:55;6.13;;;5.53;;
37383;SDS011;23258;49.718;11.082;2023-01-23T10:40:28;7.37;;;5.27;;
37383;SDS011;23258;49.718;11.082;2023-01-23T10:43:11;8.37;;;5.37;;
37383;SDS011;23258;49.718;11.082;2023-01-23T10:45:42;7.33;;;5.40;;
37383;SDS011;23258;49.718;11.082;2023-01-23T10:48:28;8.30;;;5.33;;
37383;SDS011;23258;49.718;11.082;2023-01-23T10:50:58;6.05;;;5.40;;
37383;SDS011;23258;49.718;11.082;2023-01-23T10:53:31;7.17;;;5.30;;
37383;SDS011;23258;49.718;11.082;2023-01-23T10:56:01;7.30;;;5.43;;
37383;SDS011;23258;49.718;11.082;2023-01-23T10:58:31;6.88;;;6.15;;
37383;SDS011;23258;49.718;11.082;2023-01-23T11:01:01;8.67;;;6.77;;
37383;SDS011;23258;49.718;11.082;2023-01-23T11:03:32;6.80;;;5.27;;
37383;SDS011;23258;49.718;11.082;2023-01-23T11:06:03;5.82;;;5.22;;
37383;SDS011;23258;49.718;11.082;2023-01-23T11:08:36;5.57;;;4.97;;
37383;SDS011;23258;49.718;11.082;2023-01-23T11:11:19;6.22;;;5.07;;
37383;SDS011;23258;49.718;11.082;2023-01-23T11:13:50;5.57;;;5.00;;
37383;SDS011;23258;49.718;11.082;2023-01-23T11:16:30;6.35;;;4.88;;
37383;SDS011;23258;49.718;11.082;2023-01-23T11:19:07;6.05;;;4.90;;
37383;SDS011;23258;49.718;11.082;2023-01-23T11:21:50;8.75;;;5.72;;
37383;SDS011;23258;49.718;11.082;2023-01-23T11:24:25;6.10;;;5.13;;
37383;SDS011;23258;49.718;11.082;2023-01-23T11:27:14;6.47;;;4.97;;
37383;SDS011;23258;49.718;11.082;2023-01-23T11:32:30;5.10;;;4.43;;
37383;SDS011;23258;49.718;11.082;2023-01-23T11:35:04;4.70;;;4.20;;
37383;SDS011;23258;49.718;11.082;2023-01-23T11:37:39;7.55;;;4.63;;
37383;SDS011;23258;49.718;11.082;2023-01-23T11:40:13;4.82;;;4.38;;
37383;SDS011;23258;49.718;11.082;2023-01-23T11:42:44;4.40;;;3.88;;
37383;SDS011;23258;49.718;11.082;2023-01-23T11:45:17;5.20;;;4.70;;
37383;SDS011;23258;49.718;11.082;2023-01-23T11:47:59;4.93;;;4.07;;
37383;SDS011;23258;49.718;11.082;2023-01-23T11:50:35;5.88;;;4.82;;
37383;SDS011;23258;49.718;11.082;2023-01-23T11:53:22;5.35;;;4.85;;
37383;SDS011;23258;49.718;11.082;2023-01-23T11:59:07;5.25;;;4.78;;
37383;SDS011;23258;49.718;11.082;2023-01-23T12:01:43;5.35;;;4.40;;
37383;SDS011;23258;49.718;11.082;2023-01-23T12:04:34;5.40;;;4.60;;
37383;SDS011;23258;49.718;11.082;2023-01-23T12:07:10;5.70;;;4.68;;
37383;SDS011;23258;49.718;11.082;2023-01-23T12:09:44;6.07;;;5.38;;
37383;SDS011;23258;49.718;11.082;2023-01-23T12:12:18;7.18;;;4.80;;
37383;SDS011;23258;49.718;11.082;2023-01-23T12:14:54;5.55;;;4.78;;
37383;SDS011;23258;49.718;11.082;2023-01-23T12:17:27;5.85;;;4.70;;
37383;SDS011;23258;49.718;11.082;2023-01-23T12:20:05;5.97;;;4.50;;
37383;SDS011;23258;49.718;11.082;2023-01-23T12:22:47;5.57;;;5.07;;
37383;SDS011;23258;49.718;11.082;2023-01-23T12:25:21;6.68;;;4.82;;
37383;SDS011;23258;49.718;11.082;2023-01-23T12:27:53;8.88;;;5.45;;
37383;SDS011;23258;49.718;11.082;2023-01-23T12:30:44;5.30;;;4.75;;
37383;SDS011;23258;49.718;11.082;2023-01-23T12:33:25;5.53;;;4.75;;
37383;SDS011;23258;49.718;11.082;2023-01-23T12:36:07;5.72;;;4.50;;
37383;SDS011;23258;49.718;11.082;2023-01-23T12:38:43;5.80;;;5.22;;
37383;SDS011;23258;49.718;11.082;2023-01-23T12:41:21;7.68;;;6.25;;
37383;SDS011;23258;49.718;11.082;2023-01-23T12:43:54;4.82;;;4.38;;
37383;SDS011;23258;49.718;11.082;2023-01-23T12:46:31;6.90;;;5.03;;
37383;SDS011;23258;49.718;11.082;2023-01-23T12:49:04;4.75;;;4.22;;
37383;SDS011;23258;49.718;11.082;2023-01-23T12:51:43;5.88;;;4.65;;
37383;SDS011;23258;49.718;11.082;2023-01-23T12:54:15;5.35;;;4.68;;
37383;SDS011;23258;49.718;11.082;2023-01-23T12:56:46;5.03;;;4.47;;
37383;SDS011;23258;49.718;11.082;2023-01-23T12:59:16;5.68;;;4.45;;
37383;SDS011;23258;49.718;11.082;2023-01-23T13:01:54;5.63;;;4.65;;
37383;SDS011;23258;49.718;11.082;2023-01-23T13:04:29;5.40;;;4.90;;
37383;SDS011;23258;49.718;11.082;2023-01-23T13:07:09;4.70;;;4.10;;
37383;SDS011;23258;49.718;11.082;2023-01-23T13:09:48;4.50;;;4.10;;
37383;SDS011;23258;49.718;11.082;2023-01-23T13:12:19;5.60;;;4.15;;
37383;SDS011;23258;49.718;11.082;2023-01-23T13:14:50;8.20;;;5.20;;
37383;SDS011;23258;49.718;11.082;2023-01-23T13:17:43;5.38;;;4.47;;
37383;SDS011;23258;49.718;11.082;2023-01-23T13:20:19;7.13;;;4.32;;
37383;SDS011;23258;49.718;11.082;2023-01-23T13:25:46;4.35;;;3.95;;
37383;SDS011;23258;49.718;11.082;2023-01-23T13:28:24;4.28;;;3.33;;
37383;SDS011;23258;49.718;11.082;2023-01-23T13:31:21;4.68;;;4.28;;
37383;SDS011;23258;49.718;11.082;2023-01-23T13:33:55;3.90;;;3.50;;
37383;SDS011;23258;49.718;11.082;2023-01-23T13:36:41;4.63;;;4.10;;
37383;SDS011;23258;49.718;11.082;2023-01-23T13:39:21;4.18;;;3.75;;
37383;SDS011;23258;49.718;11.082;2023-01-23T13:41:52;4.88;;;4.25;;
37383;SDS011;23258;49.718;11.082;2023-01-23T13:47:26;5.22;;;4.72;;
37383;SDS011;23258;49.718;11.082;2023-01-23T13:50:28;5.22;;;4.40;;
37383;SDS011;23258;49.718;11.082;2023-01-23T13:53:14;4.30;;;3.90;;
37383;SDS011;23258;49.718;11.082;2023-01-23T13:56:12;5.97;;;4.55;;
37383;SDS011;23258;49.718;11.082;2023-01-23T13:59:18;5.68;;;4.75;;
37383;SDS011;23258;49.718;11.082;2023-01-23T14:02:12;5.38;;;3.83;;
37383;SDS011;23258;49.718;11.082;2023-01-23T14:08:15;4.75;;;4.10;;
37383;SDS011;23258;49.718;11.082;2023-01-23T14:10:58;4.22;;;3.83;;
37383;SDS011;23258;49.718;11.082;2023-01-23T14:13:48;4.22;;;3.83;;
37383;SDS011;23258;49.718;11.082;2023-01-23T14:16:52;4.50;;;3.65;;
37383;SDS011;23258;49.718;11.082;2023-01-23T14:19:33;3.90;;;3.60;;
37383;SDS011;23258;49.718;11.082;2023-01-23T14:22:17;4.13;;;3.63;;
37383;SDS011;23258;49.718;11.082;2023-01-23T14:24:50;4.80;;;4.05;;
37383;SDS011;23258;49.718;11.082;2023-01-23T14:27:21;4.57;;;4.13;;
37383;SDS011;23258;49.718;11.082;2023-01-23T14:29:58;4.57;;;4.20;;
37383;SDS011;23258;49.718;11.082;2023-01-23T14:32:28;4.95;;;4.43;;
37383;SDS011;23258;49.718;11.082;2023-01-23T14:34:58;5.47;;;4.45;;
37383;SDS011;23258;49.718;11.082;2023-01-23T14:37:28;4.70;;;3.92;;
37383;SDS011;23258;49.718;11.082;2023-01-23T14:40:01;5.63;;;4.70;;
37383;SDS011;23258;49.718;11.082;2023-01-23T14:42:37;4.95;;;4.45;;
37383;SDS011;23258;49.718;11.082;2023-01-23T14:45:07;5.80;;;5.20;;
37383;SDS011;23258;49.718;11.082;2023-01-23T14:47:39;5.03;;;4.55;;
37383;SDS011;23258;49.718;11.082;2023-01-23T14:50:14;6.25;;;5.65;;
37383;SDS011;23258;49.718;11.082;2023-01-23T14:52:44;5.85;;;5.18;;
37383;SDS011;23258;49.718;11.082;2023-01-23T14:55:22;5.10;;;4.35;;
37383;SDS011;23258;49.718;11.082;2023-01-23T14:57:58;5.63;;;5.13;;
37383;SDS011;23258;49.718;11.082;2023-01-23T15:00:28;6.57;;;4.75;;
37383;SDS011;23258;49.718;11.082;2023-01-23T15:02:58;7.00;;;5.10;;
37383;SDS011;23258;49.718;11.082;2023-01-23T15:05:29;5.40;;;4.70;;
37383;SDS011;23258;49.718;11.082;2023-01-23T15:07:59;6.18;;;5.18;;
37383;SDS011;23258;49.718;11.082;2023-01-23T15:10:33;6.33;;;5.20;;
37383;SDS011;23258;49.718;11.082;2023-01-23T15:13:04;4.63;;;4.17;;
37383;SDS011;23258;49.718;11.082;2023-01-23T15:15:35;7.75;;;5.30;;
37383;SDS011;23258;49.718;11.082;2023-01-23T15:18:14;6.50;;;4.63;;
37383;SDS011;23258;49.718;11.082;2023-01-23T15:20:51;6.00;;;5.23;;
37383;SDS011;23258;49.718;11.082;2023-01-23T15:23:23;5.10;;;4.63;;
37383;SDS011;23258;49.718;11.082;2023-01-23T15:26:18;6.67;;;5.13;;